createdAt,value
2022-12-26T00:00:54.475Z,52.68
2022-12-26T00:03:23.474Z,52.53
2022-12-26T00:05:52.007Z,52.83
2022-12-26T00:08:20.496Z,52.56
2022-12-26T00:10:48.979Z,52.72
2022-12-26T00:13:39.542Z,52.56
2022-12-26T00:16:09.184Z,52.53
2022-12-26T00:18:37.654Z,52.58
2022-12-26T00:21:06.825Z,52.65
2022-12-26T00:23:36.372Z,52.43
2022-12-26T00:26:05.335Z,52.86
2022-12-26T00:28:35.627Z,52.46
2022-12-26T00:31:05.395Z,52.39
2022-12-26T00:33:34.775Z,52.62
2022-12-26T00:36:03.750Z,52.40
2022-12-26T00:38:32.766Z,52.73
2022-12-26T00:41:01.355Z,52.16
2022-12-26T00:43:30.033Z,52.18
2022-12-26T00:46:01.178Z,52.50
2022-12-26T00:48:29.859Z,52.60
2022-12-26T00:50:58.482Z,52.16
2022-12-26T00:53:27.719Z,52.04
2022-12-26T00:55:57.531Z,52.39
2022-12-26T00:58:26.472Z,52.30
2022-12-26T01:00:55.636Z,52.30
2022-12-26T01:03:25.504Z,52.33
2022-12-26T01:05:54.068Z,52.40
2022-12-26T01:08:24.971Z,52.23
2022-12-26T01:10:53.934Z,52.34
2022-12-26T01:13:22.415Z,52.40
2022-12-26T01:15:52.435Z,52.53
2022-12-26T01:18:22.222Z,52.45
2022-12-26T01:20:52.040Z,52.64
2022-12-26T01:23:20.457Z,52.22
2022-12-26T01:26:17.199Z,52.37
2022-12-26T01:28:37.368Z,52.30
2022-12-26T01:31:06.389Z,52.65
2022-12-26T01:33:34.862Z,52.26
2022-12-26T01:36:05.002Z,52.81
2022-12-26T01:38:33.511Z,52.82
2022-12-26T01:41:20.956Z,52.47
2022-12-26T01:43:52.345Z,52.61
2022-12-26T01:46:24.185Z,52.23
2022-12-26T01:48:53.260Z,52.47
2022-12-26T01:51:25.402Z,52.28
2022-12-26T01:53:56.014Z,52.78
2022-12-26T01:56:46.470Z,52.62
2022-12-26T01:59:17.696Z,52.46
2022-12-26T02:01:48.479Z,52.01
2022-12-26T02:04:39.440Z,52.16
2022-12-26T02:07:09.448Z,52.66
2022-12-26T02:09:38.530Z,52.33
2022-12-26T02:12:33.915Z,52.46
2022-12-26T02:14:59.599Z,52.57
2022-12-26T02:17:29.075Z,52.45
2022-12-26T02:20:04.015Z,52.30
2022-12-26T02:22:48.223Z,52.48
2022-12-26T02:25:34.169Z,52.36
2022-12-26T02:28:43.895Z,52.63
2022-12-26T02:31:16.188Z,52.29
2022-12-26T02:33:53.890Z,52.70
2022-12-26T02:36:46.846Z,52.56
2022-12-26T02:39:45.015Z,52.28
2022-12-26T02:42:22.284Z,52.75
2022-12-26T02:45:12.481Z,52.13
2022-12-26T02:47:49.560Z,52.49
2022-12-26T02:50:43.885Z,52.37
2022-12-26T02:53:32.152Z,52.01
2022-12-26T02:56:20.435Z,52.48
2022-12-26T02:59:13.263Z,52.01
2022-12-26T03:02:04.325Z,52.31
2022-12-26T03:04:54.192Z,52.20
2022-12-26T03:07:43.446Z,52.20
2022-12-26T03:10:37.364Z,52.00
2022-12-26T03:13:23.680Z,52.61
2022-12-26T03:16:11.484Z,52.14
2022-12-26T03:18:58.272Z,52.22
2022-12-26T03:21:32.490Z,52.09
2022-12-26T03:24:01.196Z,52.25
2022-12-26T03:26:42.175Z,52.38
2022-12-26T03:29:30.394Z,52.21
2022-12-26T03:31:59.245Z,52.26
2022-12-26T03:34:26.808Z,52.24
2022-12-26T03:37:49.623Z,52.20
2022-12-26T03:40:42.485Z,52.49
2022-12-26T03:43:34.049Z,51.81
2022-12-26T03:46:27.182Z,52.10
2022-12-26T03:49:15.552Z,52.19
2022-12-26T03:52:05.974Z,52.14
2022-12-26T03:54:58.738Z,52.23
2022-12-26T03:57:49.752Z,52.10
2022-12-26T04:00:36.102Z,52.35
2022-12-26T04:03:26.510Z,52.41
2022-12-26T04:06:13.846Z,52.17
2022-12-26T04:09:04.320Z,52.29
2022-12-26T04:11:52.530Z,52.08
2022-12-26T04:14:49.490Z,52.25
2022-12-26T04:17:41.775Z,52.30
2022-12-26T04:20:15.298Z,52.31
2022-12-26T04:23:06.489Z,52.60
2022-12-26T04:25:54.877Z,52.29
2022-12-26T04:28:42.548Z,51.95
2022-12-26T04:31:33.045Z,52.39
2022-12-26T04:34:21.348Z,52.25
2022-12-26T04:37:12.044Z,52.18
2022-12-26T04:39:58.955Z,52.12
2022-12-26T04:42:45.888Z,52.10
2022-12-26T04:45:16.237Z,52.50
2022-12-26T04:48:04.867Z,52.37
2022-12-26T04:50:32.368Z,52.22
2022-12-26T04:53:01.167Z,52.18
2022-12-26T04:55:31.135Z,52.21
2022-12-26T04:58:00.309Z,51.98
2022-12-26T05:00:30.265Z,52.19
2022-12-26T05:03:19.189Z,52.24
2022-12-26T05:06:08.521Z,52.47
2022-12-26T05:08:56.522Z,52.57
2022-12-26T05:11:25.779Z,51.73
2022-12-26T05:13:55.050Z,52.36
2022-12-26T05:16:43.796Z,51.85
2022-12-26T05:19:30.608Z,52.20
2022-12-26T05:22:17.738Z,52.39
2022-12-26T05:25:04.822Z,52.57
2022-12-26T05:27:54.697Z,52.20
2022-12-26T05:30:23.230Z,52.42
2022-12-26T05:33:10.593Z,52.47
2022-12-26T05:35:40.205Z,52.10
2022-12-26T05:38:09.266Z,52.40
2022-12-26T05:40:37.786Z,52.09
2022-12-26T05:43:06.369Z,52.30
2022-12-26T05:45:34.953Z,52.06
2022-12-26T05:48:05.154Z,51.98
2022-12-26T05:50:33.565Z,52.31
2022-12-26T05:53:03.061Z,51.91
2022-12-26T05:55:31.659Z,51.88
2022-12-26T05:58:01.375Z,51.94
2022-12-26T06:00:30.393Z,52.21
2022-12-26T06:03:00.869Z,52.14
2022-12-26T06:05:30.797Z,52.31
2022-12-26T06:07:59.360Z,52.21
2022-12-26T06:10:29.617Z,51.97
2022-12-26T06:12:58.411Z,51.84
2022-12-26T06:15:27.012Z,52.04
2022-12-26T06:17:56.093Z,52.13
2022-12-26T06:20:24.601Z,52.44
2022-12-26T06:22:54.382Z,52.24
2022-12-26T06:25:22.805Z,52.21
2022-12-26T06:27:51.314Z,52.52
2022-12-26T06:30:19.797Z,52.21
2022-12-26T06:32:48.541Z,52.20
2022-12-26T06:35:17.193Z,51.71
2022-12-26T06:37:45.677Z,51.95
2022-12-26T06:40:16.091Z,51.80
2022-12-26T06:42:44.561Z,52.16
2022-12-26T06:45:12.995Z,52.14
2022-12-26T06:47:41.435Z,51.79
2022-12-26T06:50:10.864Z,52.30
2022-12-26T06:52:39.609Z,52.04
2022-12-26T06:55:08.666Z,51.81
2022-12-26T06:57:39.665Z,51.87
2022-12-26T07:00:12.325Z,52.12
2022-12-26T07:02:40.926Z,52.10
2022-12-26T07:05:09.637Z,51.98
2022-12-26T07:07:38.075Z,51.96
2022-12-26T07:10:07.465Z,52.23
2022-12-26T07:12:35.951Z,51.79
2022-12-26T07:15:09.975Z,51.78
2022-12-26T07:17:38.845Z,52.28
2022-12-26T07:20:08.817Z,52.05
2022-12-26T07:22:37.325Z,52.40
2022-12-26T07:25:06.485Z,52.26
2022-12-26T07:27:34.983Z,52.38
2022-12-26T07:30:05.082Z,52.33
2022-12-26T07:32:33.864Z,51.94
2022-12-26T07:35:02.547Z,51.75
2022-12-26T07:37:31.041Z,52.15
2022-12-26T07:39:59.626Z,51.55
2022-12-26T07:42:28.403Z,51.93
2022-12-26T07:44:56.907Z,52.02
2022-12-26T07:47:26.663Z,52.01
2022-12-26T07:49:55.115Z,52.03
2022-12-26T07:52:24.016Z,52.11
2022-12-26T07:54:52.454Z,52.09
2022-12-26T07:57:47.326Z,52.11
2022-12-26T08:00:10.228Z,51.95
2022-12-26T08:02:43.012Z,51.95
2022-12-26T08:05:11.878Z,51.93
2022-12-26T08:07:40.585Z,51.93
2022-12-26T08:10:10.065Z,52.11
2022-12-26T08:12:38.858Z,51.85
2022-12-26T08:15:10.046Z,52.20
2022-12-26T08:17:38.595Z,51.87
2022-12-26T08:20:09.658Z,51.73
2022-12-26T08:22:38.113Z,52.06
2022-12-26T08:25:08.088Z,52.23
2022-12-26T08:27:36.595Z,51.83
2022-12-26T08:30:05.935Z,52.21
2022-12-26T08:32:34.891Z,51.86
2022-12-26T08:35:04.329Z,52.11
2022-12-26T08:37:34.226Z,52.33
2022-12-26T08:40:02.687Z,51.80
2022-12-26T08:42:31.115Z,52.17
2022-12-26T08:44:59.659Z,51.94
2022-12-26T08:47:28.495Z,52.33
2022-12-26T08:49:56.890Z,52.23
2022-12-26T08:52:25.330Z,51.84
2022-12-26T08:54:55.341Z,52.09
2022-12-26T08:57:23.925Z,51.62
2022-12-26T08:59:52.312Z,51.65
2022-12-26T09:02:20.868Z,51.82
2022-12-26T09:04:49.431Z,51.99
2022-12-26T09:07:17.848Z,51.92
2022-12-26T09:09:47.389Z,51.69
2022-12-26T09:12:17.181Z,51.43
2022-12-26T09:14:50.195Z,51.71
2022-12-26T09:17:19.239Z,52.04
2022-12-26T09:19:47.905Z,51.58
2022-12-26T09:22:35.410Z,51.61
2022-12-26T09:25:04.287Z,51.76
2022-12-26T09:27:34.085Z,51.85
2022-12-26T09:30:02.708Z,51.46
2022-12-26T09:32:34.055Z,52.05
2022-12-26T09:35:02.766Z,51.79
2022-12-26T09:37:31.831Z,52.04
2022-12-26T09:40:01.081Z,52.27
2022-12-26T09:42:38.091Z,51.96
2022-12-26T09:45:12.725Z,51.88
2022-12-26T09:47:50.484Z,52.13
2022-12-26T09:50:25.961Z,51.81
2022-12-26T09:52:57.073Z,51.70
2022-12-26T09:55:41.715Z,51.67
2022-12-26T09:58:20.486Z,51.61
2022-12-26T10:00:53.137Z,51.88
2022-12-26T10:03:23.345Z,51.87
2022-12-26T10:06:13.939Z,52.03
2022-12-26T10:09:19.745Z,52.05
2022-12-26T10:12:00.674Z,51.85
2022-12-26T10:14:38.114Z,52.26
2022-12-26T10:17:15.062Z,51.87
2022-12-26T10:19:58.906Z,52.12
2022-12-26T10:22:57.828Z,52.20
2022-12-26T10:25:34.241Z,51.95
2022-12-26T10:28:03.741Z,52.24
2022-12-26T10:30:37.098Z,51.92
2022-12-26T10:33:11.371Z,52.29
2022-12-26T10:35:43.201Z,51.84
2022-12-26T10:38:15.090Z,52.04
2022-12-26T10:40:45.982Z,52.26
2022-12-26T10:43:23.572Z,51.80
2022-12-26T10:46:08.935Z,52.19
2022-12-26T10:48:37.351Z,52.42
2022-12-26T10:51:06.304Z,52.21
2022-12-26T10:53:41.639Z,51.75
2022-12-26T10:56:14.802Z,52.22
2022-12-26T10:58:45.620Z,52.11
2022-12-26T11:01:38.331Z,52.29
2022-12-26T11:04:10.319Z,52.05
2022-12-26T11:06:40.812Z,52.35
2022-12-26T11:09:24.920Z,52.28
2022-12-26T11:11:54.413Z,52.32
2022-12-26T11:14:33.721Z,52.26
2022-12-26T11:17:07.418Z,52.60
2022-12-26T11:19:37.868Z,52.21
2022-12-26T11:22:25.831Z,52.28
2022-12-26T11:25:12.993Z,52.42
2022-12-26T11:27:43.823Z,52.35
2022-12-26T11:30:27.787Z,52.06
2022-12-26T11:33:14.777Z,52.28
2022-12-26T11:35:49.895Z,52.35
2022-12-26T11:38:37.584Z,52.37
2022-12-26T11:41:30.508Z,52.35
2022-12-26T11:44:01.228Z,52.80
2022-12-26T11:46:38.475Z,52.45
2022-12-26T11:49:18.350Z,52.43
2022-12-26T11:51:49.195Z,52.82
2022-12-26T11:54:26.883Z,52.47
2022-12-26T11:57:12.475Z,52.56
2022-12-26T11:59:41.181Z,52.86
2022-12-26T12:02:19.245Z,52.82
2022-12-26T12:04:50.194Z,52.62
2022-12-26T12:07:28.032Z,52.86
2022-12-26T12:10:02.771Z,53.22
2022-12-26T12:12:38.739Z,53.10
2022-12-26T12:15:12.969Z,52.64
2022-12-26T12:17:45.404Z,52.96
2022-12-26T12:20:30.284Z,52.89
2022-12-26T12:23:21.377Z,52.97
2022-12-26T12:26:00.439Z,53.25
2022-12-26T12:28:42.701Z,53.38
2022-12-26T12:31:17.570Z,53.50
2022-12-26T12:33:50.467Z,53.16
2022-12-26T12:36:24.123Z,53.42
2022-12-26T12:39:02.346Z,53.41
2022-12-26T12:42:01.862Z,53.01
2022-12-26T12:44:40.575Z,53.20
2022-12-26T12:47:17.205Z,53.12
2022-12-26T12:49:53.865Z,53.20
2022-12-26T12:52:35.895Z,53.39
2022-12-26T12:55:31.071Z,52.99
2022-12-26T12:58:02.510Z,53.20
2022-12-26T13:00:40.602Z,52.90
2022-12-26T13:03:12.646Z,53.29
2022-12-26T13:05:46.867Z,52.82
2022-12-26T13:08:19.461Z,53.01
2022-12-26T13:10:52.798Z,53.40
2022-12-26T13:13:27.428Z,53.20
2022-12-26T13:16:00.899Z,52.90
2022-12-26T13:18:32.664Z,53.31
2022-12-26T13:21:05.629Z,53.17
2022-12-26T13:23:55.614Z,52.95
2022-12-26T13:26:30.688Z,53.00
2022-12-26T13:29:02.372Z,53.28
2022-12-26T13:31:34.110Z,53.33
2022-12-26T13:34:03.448Z,53.39
2022-12-26T13:36:37.664Z,53.38
2022-12-26T13:39:38.292Z,53.23
2022-12-26T13:42:51.952Z,52.98
2022-12-26T13:46:00.939Z,53.14
2022-12-26T13:49:02.680Z,53.46
2022-12-26T13:51:49.056Z,53.10
2022-12-26T13:54:18.408Z,53.22
2022-12-26T13:57:33.549Z,53.08
2022-12-26T14:00:15.886Z,53.44
2022-12-26T14:03:20.141Z,53.11
2022-12-26T14:05:59.354Z,53.21
2022-12-26T14:08:33.272Z,53.23
2022-12-26T14:11:14.481Z,53.11
2022-12-26T14:14:04.007Z,52.92
2022-12-26T14:16:36.547Z,53.46
2022-12-26T14:19:13.259Z,53.02
2022-12-26T14:21:47.843Z,53.16
2022-12-26T14:24:25.812Z,53.01
2022-12-26T14:27:02.441Z,53.33
2022-12-26T14:29:35.539Z,53.02
2022-12-26T14:32:13.951Z,53.22
2022-12-26T14:34:52.052Z,53.57
2022-12-26T14:37:24.615Z,52.96
2022-12-26T14:40:06.365Z,53.62
2022-12-26T14:43:13.991Z,53.25
2022-12-26T14:45:45.448Z,53.43
2022-12-26T14:48:51.133Z,53.10
2022-12-26T14:51:35.136Z,53.32
2022-12-26T14:54:32.546Z,53.26
2022-12-26T14:57:01.312Z,53.20
2022-12-26T14:59:33.213Z,53.10
2022-12-26T15:02:08.209Z,53.04
2022-12-26T15:04:53.632Z,53.09
2022-12-26T15:08:00.637Z,53.11
2022-12-26T15:10:43.814Z,53.66
2022-12-26T15:13:36.405Z,53.32
2022-12-26T15:16:24.517Z,53.39
2022-12-26T15:19:19.146Z,53.27
2022-12-26T15:22:23.110Z,53.51
2022-12-26T15:25:29.323Z,53.60
2022-12-26T15:28:42.757Z,53.24
2022-12-26T15:31:30.848Z,53.39
2022-12-26T15:34:01.832Z,53.57
2022-12-26T15:36:37.393Z,53.54
2022-12-26T15:39:14.936Z,53.62
2022-12-26T15:41:47.885Z,53.61
2022-12-26T15:44:21.845Z,53.50
2022-12-26T15:46:59.186Z,53.59
2022-12-26T15:49:38.064Z,53.69
2022-12-26T15:52:13.821Z,53.41
2022-12-26T15:55:09.390Z,53.82
2022-12-26T15:57:46.546Z,53.50
2022-12-26T16:00:17.704Z,53.81
2022-12-26T16:02:51.126Z,53.68
2022-12-26T16:05:32.654Z,53.62
2022-12-26T16:08:09.833Z,53.49
2022-12-26T16:10:38.775Z,53.52
2022-12-26T16:13:22.614Z,53.12
2022-12-26T16:15:53.889Z,53.31
2022-12-26T16:18:28.181Z,53.44
2022-12-26T16:21:16.251Z,53.30
2022-12-26T16:23:45.820Z,53.16
2022-12-26T16:26:18.517Z,53.59
2022-12-26T16:28:47.025Z,53.03
2022-12-26T16:31:19.760Z,53.60
2022-12-26T16:33:49.619Z,53.45
2022-12-26T16:36:21.930Z,53.41
2022-12-26T16:38:52.128Z,53.39
2022-12-26T16:41:23.035Z,53.42
2022-12-26T16:43:54.088Z,53.67
2022-12-26T16:46:25.137Z,53.16
2022-12-26T16:48:57.479Z,52.97
2022-12-26T16:51:39.712Z,53.62
2022-12-26T16:54:29.771Z,53.52
2022-12-26T16:57:04.496Z,53.19
2022-12-26T16:59:41.293Z,53.37
2022-12-26T17:02:17.557Z,53.60
2022-12-26T17:04:58.370Z,53.55
2022-12-26T17:07:27.335Z,53.29
2022-12-26T17:09:57.478Z,53.70
2022-12-26T17:12:29.804Z,53.42
2022-12-26T17:14:59.432Z,53.25
2022-12-26T17:17:31.394Z,53.15
2022-12-26T17:20:35.286Z,53.14
2022-12-26T17:23:35.078Z,53.39
2022-12-26T17:26:22.821Z,53.26
2022-12-26T17:28:51.819Z,53.59
2022-12-26T17:31:24.895Z,53.56
2022-12-26T17:33:56.850Z,53.38
2022-12-26T17:39:24.610Z,53.56
2022-12-26T17:41:56.883Z,53.83
2022-12-26T17:44:36.453Z,53.80
2022-12-26T17:47:16.008Z,53.64
2022-12-26T17:49:44.568Z,53.35
2022-12-26T17:52:15.754Z,53.51
2022-12-26T17:54:44.647Z,53.70
2022-12-26T17:57:19.077Z,53.32
2022-12-26T17:59:48.175Z,53.49
2022-12-26T18:02:17.076Z,53.23
2022-12-26T18:04:46.053Z,53.39
2022-12-26T18:07:20.949Z,53.13
2022-12-26T18:09:52.594Z,53.84
2022-12-26T18:12:21.130Z,53.42
2022-12-26T18:14:49.555Z,53.66
2022-12-26T18:17:18.892Z,53.72
2022-12-26T18:19:49.380Z,53.72
2022-12-26T18:22:20.380Z,53.56
2022-12-26T18:24:49.554Z,53.60
2022-12-26T18:27:19.165Z,53.74
2022-12-26T18:29:49.586Z,53.84
2022-12-26T18:32:24.549Z,53.94
2022-12-26T18:34:53.301Z,53.59
2022-12-26T18:37:24.883Z,53.72
2022-12-26T18:39:53.445Z,53.70
2022-12-26T18:42:21.895Z,53.93
2022-12-26T18:44:50.601Z,54.04
2022-12-26T18:47:21.290Z,53.75
2022-12-26T18:49:50.559Z,53.45
2022-12-26T18:52:19.138Z,53.67
2022-12-26T18:54:49.659Z,53.73
2022-12-26T18:57:21.231Z,53.48
2022-12-26T18:59:49.832Z,53.13
2022-12-26T19:02:19.825Z,53.31
2022-12-26T19:04:49.364Z,53.43
2022-12-26T19:07:20.280Z,53.44
2022-12-26T19:09:54.929Z,53.77
2022-12-26T19:12:24.116Z,53.64
2022-12-26T19:14:52.885Z,53.89
2022-12-26T19:17:21.343Z,53.58
2022-12-26T19:19:49.838Z,53.70
2022-12-26T19:22:18.321Z,53.82
2022-12-26T19:24:46.928Z,53.71
2022-12-26T19:27:16.864Z,53.99
2022-12-26T19:29:45.414Z,53.31
2022-12-26T19:32:14.008Z,53.54
2022-12-26T19:34:42.620Z,54.08
2022-12-26T19:37:11.093Z,53.63
2022-12-26T19:39:39.478Z,53.97
2022-12-26T19:42:07.958Z,54.25
2022-12-26T19:44:37.824Z,53.81
2022-12-26T19:47:11.542Z,53.89
2022-12-26T19:49:42.218Z,54.22
2022-12-26T19:52:11.122Z,54.09
2022-12-26T19:54:39.620Z,53.91
2022-12-26T19:57:08.123Z,54.28
2022-12-26T19:59:38.155Z,53.79
2022-12-26T20:02:06.863Z,53.94
2022-12-26T20:04:35.465Z,53.73
2022-12-26T20:07:03.897Z,53.67
2022-12-26T20:09:32.492Z,53.92
2022-12-26T20:12:01.583Z,53.82
2022-12-26T20:14:32.324Z,53.78
2022-12-26T20:17:05.597Z,53.65
2022-12-26T20:19:35.656Z,54.06
2022-12-26T20:22:05.024Z,53.94
2022-12-26T20:24:33.726Z,53.80
2022-12-26T20:27:02.500Z,53.61
2022-12-26T20:29:31.097Z,53.93
2022-12-26T20:32:00.317Z,53.68
2022-12-26T20:34:30.240Z,53.30
2022-12-26T20:36:58.781Z,53.54
2022-12-26T20:39:27.445Z,53.83
2022-12-26T20:41:55.966Z,53.73
2022-12-26T20:44:25.542Z,53.77
2022-12-26T20:46:54.331Z,53.77
2022-12-26T20:49:23.130Z,53.73
2022-12-26T20:51:56.922Z,53.79
2022-12-26T20:54:25.730Z,54.00
2022-12-26T20:56:54.329Z,53.91
2022-12-26T20:59:22.998Z,53.71
2022-12-26T21:01:52.034Z,53.64
2022-12-26T21:04:22.434Z,53.55
2022-12-26T21:06:51.336Z,53.61
2022-12-26T21:09:21.448Z,53.83
2022-12-26T21:11:50.199Z,53.50
2022-12-26T21:14:20.712Z,53.70
2022-12-26T21:16:51.711Z,53.75
2022-12-26T21:19:21.016Z,53.31
2022-12-26T21:21:52.326Z,54.13
2022-12-26T21:24:25.159Z,53.59
2022-12-26T21:26:54.586Z,53.79
2022-12-26T21:29:26.307Z,53.96
2022-12-26T21:31:55.779Z,53.39
2022-12-26T21:34:26.835Z,54.15
2022-12-26T21:37:14.445Z,53.84
2022-12-26T21:39:44.981Z,53.44
2022-12-26T21:42:13.783Z,53.71
2022-12-26T21:44:42.611Z,53.54
2022-12-26T21:47:11.487Z,53.58
2022-12-26T21:49:40.308Z,53.48
2022-12-26T21:52:09.327Z,53.90
2022-12-26T21:54:56.341Z,53.86
2022-12-26T21:57:26.946Z,53.89
2022-12-26T21:59:58.927Z,53.69
2022-12-26T22:02:47.954Z,54.17
2022-12-26T22:05:17.808Z,54.07
2022-12-26T22:07:47.146Z,53.54
2022-12-26T22:10:29.822Z,53.83
2022-12-26T22:13:00.533Z,53.73
2022-12-26T22:15:46.590Z,53.52
2022-12-26T22:18:15.166Z,53.67
2022-12-26T22:20:44.701Z,53.44
2022-12-26T22:23:13.552Z,53.82
2022-12-26T22:25:42.029Z,54.02
2022-12-26T22:28:11.864Z,53.57
2022-12-26T22:30:40.340Z,53.39
2022-12-26T22:33:08.896Z,53.78
2022-12-26T22:35:37.587Z,53.70
2022-12-26T22:38:06.040Z,53.48
2022-12-26T22:40:34.423Z,53.29
2022-12-26T22:43:02.909Z,53.60
2022-12-26T22:45:32.699Z,53.53
2022-12-26T22:48:01.253Z,53.29
2022-12-26T22:50:29.712Z,53.17
2022-12-26T22:52:58.488Z,53.48
2022-12-26T22:55:26.991Z,53.65
2022-12-26T22:57:59.069Z,53.84
2022-12-26T23:00:32.088Z,53.38
2022-12-26T23:03:00.872Z,53.12
2022-12-26T23:05:30.093Z,53.35
2022-12-26T23:07:59.072Z,53.15
2022-12-26T23:10:28.033Z,53.41
2022-12-26T23:12:57.115Z,53.23
2022-12-26T23:15:28.023Z,53.48
2022-12-26T23:18:20.478Z,53.36
2022-12-26T23:21:03.103Z,53.03
2022-12-26T23:23:32.126Z,53.16
2022-12-26T23:26:01.943Z,53.30
2022-12-26T23:28:47.821Z,53.10
2022-12-26T23:31:16.430Z,53.33
2022-12-26T23:33:46.326Z,53.40
2022-12-26T23:36:14.744Z,53.32
2022-12-26T23:38:43.267Z,53.61
2022-12-26T23:41:12.883Z,53.21
2022-12-26T23:43:41.463Z,53.18
2022-12-26T23:46:10.981Z,53.30
2022-12-26T23:48:39.611Z,53.19
2022-12-26T23:51:09.675Z,53.13
2022-12-26T23:53:38.485Z,53.29
2022-12-26T23:56:08.924Z,53.11
2022-12-26T23:58:38.411Z,52.96
